Iturrama, Spain
Current Conditions -  °F | °C
As of 8:30 PM on Tuesday 21 Oct 2014 (Local Time) from LEPP Reporting Station
Few Clouds Few Clouds  
Wind Chill: 64°   Ceiling: Unl
Heat Index: 64°   Visibility: 6mi
Dew Point: 57°   Wind: 17mph
Humidity: 77%   Direction: 350°N
Pressure: 30.36"   Gusts: NA
Location:  42.81°N, 1.66°W
Report Text: LEPP 211830Z 35015KT 9999 FEW030 18/14 Q1028
Loading
Personal Weather Stations






























Interactive Weather Map
Tropical Storm Tracking
New forecast layout! Learn more

10-Day Weather Forecast

Advertisements
Track Severe Weather on mobile